Time;durP1;ratioP1;P1;durP2;ratioP2;P2;SDS_P1;SDS_P2;PMS_P1;PMS_P2;Temp;Humidity;BMP_temperature;BMP_pressure;BME280_temperature;BME280_humidity;BME280_pressure;Samples;Min_cycle;Max_cycle;Signal;HPM_P1;HPM_P2
2023/05/05 00:02:22;;;;;;;20.23;9.75;;;11.50;99.90;;;;;;5055766;28;20087;-83
2023/05/05 00:04:48;;;;;;;14.75;9.55;;;11.30;99.90;;;;;;5036836;28;20032;-83
2023/05/05 00:07:13;;;;;;;21.05;10.25;;;11.20;99.90;;;;;;5051363;28;20067;-83
2023/05/05 00:09:40;;;;;;;16.30;10.57;;;11.10;99.90;;;;;;5052517;28;20036;-83
2023/05/05 00:12:06;;;;;;;15.15;10.23;;;11.00;99.90;;;;;;5053871;28;20096;-83
2023/05/05 00:14:32;;;;;;;17.27;11.20;;;10.90;99.90;;;;;;5051643;28;20493;-83
2023/05/05 00:16:57;;;;;;;19.60;10.45;;;10.90;99.90;;;;;;5051990;28;20033;-83
2023/05/05 00:19:23;;;;;;;16.95;11.23;;;10.90;99.90;;;;;;5033516;28;20030;-83
2023/05/05 00:21:49;;;;;;;17.23;10.40;;;10.80;99.90;;;;;;5050225;28;20481;-84
2023/05/05 00:24:15;;;;;;;18.85;10.75;;;10.90;99.90;;;;;;5033155;28;20037;-83
2023/05/05 00:26:40;;;;;;;15.48;10.32;;;11.00;99.90;;;;;;5050413;28;20070;-83
2023/05/05 00:29:06;;;;;;;16.40;10.95;;;11.00;99.90;;;;;;5053167;28;20025;-83
2023/05/05 00:31:32;;;;;;;16.85;10.23;;;11.10;99.90;;;;;;5052896;28;20459;-83
2023/05/05 00:33:58;;;;;;;18.88;10.23;;;11.20;99.90;;;;;;5053528;28;20112;-83
2023/05/05 00:36:23;;;;;;;19.95;10.98;;;11.20;99.90;;;;;;5052701;28;20056;-83
2023/05/05 00:38:52;;;;;;;18.92;11.32;;;11.30;99.90;;;;;;5050983;28;20029;-83
2023/05/05 00:41:18;;;;;;;18.27;10.80;;;11.30;99.90;;;;;;5053044;28;20028;-83
2023/05/05 00:43:44;;;;;;;19.15;11.10;;;11.40;99.90;;;;;;5036391;28;20021;-83
2023/05/05 00:46:26;;;;;;;19.88;10.82;;;11.40;99.90;;;;;;5052233;28;20025;-83
2023/05/05 00:48:53;;;;;;;19.88;11.50;;;11.50;99.90;;;;;;5039944;28;20028;-84
2023/05/05 00:51:20;;;;;;;17.27;11.52;;;11.50;99.90;;;;;;5051831;28;20040;-83
2023/05/05 00:53:49;;;;;;;19.92;11.40;;;11.60;99.90;;;;;;5033478;28;20109;-83
2023/05/05 00:56:20;;;;;;;17.15;11.23;;;11.70;99.90;;;;;;5051992;28;20079;-83
2023/05/05 00:58:47;;;;;;;15.82;11.32;;;11.70;99.90;;;;;;5035596;28;20025;-83
2023/05/05 01:01:14;;;;;;;19.10;11.15;;;11.60;99.90;;;;;;5035400;28;20040;-83
2023/05/05 01:03:40;;;;;;;15.90;10.75;;;11.70;99.90;;;;;;5032776;28;20045;-83
2023/05/05 01:06:09;;;;;;;15.48;10.18;;;11.70;99.90;;;;;;5045835;28;20052;-83
2023/05/05 01:08:52;;;;;;;17.33;11.38;;;11.70;99.90;;;;;;5046195;28;20059;-83
2023/05/05 01:11:35;;;;;;;18.52;10.80;;;11.70;99.90;;;;;;5036133;28;20163;-83
2023/05/05 01:14:16;;;;;;;17.23;10.98;;;11.80;99.90;;;;;;5035751;28;20476;-83
2023/05/05 01:16:58;;;;;;;17.17;11.17;;;11.70;99.90;;;;;;5050290;28;20037;-83
2023/05/05 01:19:39;;;;;;;18.98;11.68;;;11.60;99.90;;;;;;5043475;28;20284;-83
2023/05/05 01:22:10;;;;;;;26.98;12.02;;;11.60;99.90;;;;;;5035366;28;20021;-83
2023/05/05 01:24:53;;;;;;;20.40;10.88;;;11.60;99.90;;;;;;5034027;28;20043;-83
2023/05/05 01:31:38;;;;;;;18.13;10.23;;;11.80;99.90;;;;;;5046804;28;20035;-83
2023/05/05 01:34:07;;;;;;;14.80;9.35;;;11.70;99.90;;;;;;5025893;28;20052;-83
2023/05/05 01:36:41;;;;;;;17.23;10.98;;;11.70;99.90;;;;;;5049527;28;20029;-84
2023/05/05 01:39:11;;;;;;;17.27;10.60;;;11.60;99.90;;;;;;5045403;28;20079;-83
2023/05/05 01:41:47;;;;;;;14.75;10.10;;;11.60;99.90;;;;;;5035789;28;20029;-83
2023/05/05 01:44:15;;;;;;;17.08;10.73;;;11.60;99.90;;;;;;5051073;28;20045;-83
2023/05/05 01:46:41;;;;;;;16.52;10.38;;;11.40;99.90;;;;;;5046679;28;20021;-83
2023/05/05 01:49:10;;;;;;;16.88;10.38;;;11.40;99.90;;;;;;5035116;28;20043;-84
2023/05/05 01:51:38;;;;;;;17.17;10.60;;;11.40;99.90;;;;;;5035250;28;20021;-83
2023/05/05 01:54:09;;;;;;;19.80;12.30;;;11.30;99.90;;;;;;5034618;28;20472;-83
2023/05/05 01:56:38;;;;;;;17.88;11.55;;;11.40;99.90;;;;;;5040356;28;20029;-83
2023/05/05 01:59:05;;;;;;;16.40;10.95;;;11.30;99.90;;;;;;5048976;28;20033;-83
2023/05/05 02:01:36;;;;;;;16.38;11.07;;;11.30;99.90;;;;;;5050093;28;20033;-83
2023/05/05 02:04:03;;;;;;;18.98;11.95;;;11.30;99.90;;;;;;5035026;28;20030;-83
2023/05/05 02:06:31;;;;;;;18.55;10.75;;;11.20;99.90;;;;;;5051469;28;20826;-83
2023/05/05 02:08:57;;;;;;;18.52;11.18;;;11.00;99.90;;;;;;5032002;28;20124;-83
2023/05/05 02:11:25;;;;;;;16.55;11.40;;;10.90;99.90;;;;;;5044350;28;20032;-83
2023/05/05 02:13:52;;;;;;;19.80;11.88;;;10.80;99.90;;;;;;5052117;28;20025;-83
2023/05/05 02:16:21;;;;;;;19.60;11.32;;;10.70;99.90;;;;;;5038307;28;20037;-83
2023/05/05 02:18:48;;;;;;;25.95;13.02;;;10.70;99.90;;;;;;5025182;28;20048;-83
2023/05/05 02:21:16;;;;;;;20.45;13.02;;;10.70;99.90;;;;;;5051707;28;20035;-83
2023/05/05 02:23:50;;;;;;;22.60;12.40;;;10.70;99.90;;;;;;5034888;28;20029;-83
2023/05/05 02:26:19;;;;;;;22.45;12.95;;;10.60;99.90;;;;;;5050793;28;20063;-83
2023/05/05 02:29:06;;;;;;;20.50;12.57;;;10.60;99.90;;;;;;5032219;28;20028;-83
2023/05/05 02:31:37;;;;;;;21.55;11.35;;;10.70;99.90;;;;;;5048142;28;20063;-83
2023/05/05 02:34:04;;;;;;;22.00;11.73;;;10.80;99.90;;;;;;5051081;28;20480;-83
2023/05/05 02:36:39;;;;;;;22.42;11.75;;;10.90;99.90;;;;;;5034573;28;20033;-83
2023/05/05 02:39:12;;;;;;;19.45;12.00;;;10.90;99.90;;;;;;5039554;28;20117;-83
2023/05/05 02:41:41;;;;;;;17.08;11.13;;;11.00;99.90;;;;;;5019103;28;20030;-83
2023/05/05 02:44:17;;;;;;;18.42;12.00;;;11.00;99.90;;;;;;5052991;28;20086;-83
2023/05/05 02:46:43;;;;;;;20.17;11.25;;;10.90;99.90;;;;;;5036321;28;20061;-84
2023/05/05 02:49:15;;;;;;;21.33;12.30;;;11.00;99.90;;;;;;5053588;28;20102;-83
2023/05/05 02:51:41;;;;;;;22.00;11.35;;;11.00;99.90;;;;;;5036299;28;20040;-83
2023/05/05 02:54:15;;;;;;;19.67;10.35;;;11.00;99.90;;;;;;5042268;28;20036;-83
2023/05/05 02:56:48;;;;;;;17.33;10.20;;;11.10;99.90;;;;;;5047013;28;20033;-83
2023/05/05 02:59:51;;;;;;;19.15;11.00;;;11.20;99.90;;;;;;5038700;28;20102;-83
2023/05/05 03:02:35;;;;;;;20.08;11.85;;;11.20;99.90;;;;;;5050623;28;20083;-83
2023/05/05 03:05:09;;;;;;;19.67;10.60;;;11.30;99.90;;;;;;5037336;28;20056;-83
2023/05/05 03:07:50;;;;;;;17.95;10.95;;;11.40;99.90;;;;;;5036928;28;20025;-83
2023/05/05 03:10:20;;;;;;;19.65;10.82;;;11.40;99.90;;;;;;5053568;28;20040;-83
2023/05/05 03:13:00;;;;;;;19.13;11.68;;;11.50;99.90;;;;;;5035596;28;20538;-83
2023/05/05 03:15:47;;;;;;;23.48;10.93;;;11.60;99.90;;;;;;5051125;28;20102;-83
2023/05/05 03:18:17;;;;;;;16.95;11.40;;;11.70;99.90;;;;;;5051666;28;20755;-84
2023/05/05 03:20:47;;;;;;;24.02;12.85;;;11.60;99.90;;;;;;5053688;28;20017;-84
2023/05/05 03:23:19;;;;;;;19.73;11.77;;;11.60;99.90;;;;;;5054790;28;20036;-83
2023/05/05 03:25:48;;;;;;;16.88;11.45;;;11.50;99.90;;;;;;5036133;28;20041;-84
2023/05/05 03:28:36;;;;;;;21.30;12.48;;;11.50;99.90;;;;;;5042331;28;20024;-84
2023/05/05 03:31:10;;;;;;;16.67;11.27;;;11.50;99.90;;;;;;5050221;28;20068;-84
2023/05/05 03:33:37;;;;;;;17.48;12.00;;;11.50;99.90;;;;;;5022774;28;20029;-83
2023/05/05 03:36:03;;;;;;;19.42;12.95;;;11.40;99.90;;;;;;5044400;28;20380;-83
2023/05/05 03:38:29;;;;;;;18.40;11.82;;;11.50;99.90;;;;;;5037312;28;20040;-84
2023/05/05 03:40:55;;;;;;;16.35;12.23;;;11.50;99.90;;;;;;5040159;28;20021;-83
2023/05/05 03:43:25;;;;;;;24.30;12.50;;;11.50;99.90;;;;;;5053787;28;20075;-83
2023/05/05 03:45:51;;;;;;;19.52;12.35;;;11.40;99.90;;;;;;5039055;28;20028;-84
2023/05/05 03:48:17;;;;;;;24.05;13.38;;;11.40;99.90;;;;;;5037238;28;20120;-84
2023/05/05 03:50:44;;;;;;;21.20;13.00;;;11.30;99.90;;;;;;5053611;28;20132;-84
2023/05/05 03:53:11;;;;;;;16.90;12.32;;;11.20;99.90;;;;;;5052917;28;20047;-84
2023/05/05 03:55:38;;;;;;;17.38;12.93;;;11.20;99.90;;;;;;5038319;28;20025;-83
2023/05/05 03:58:34;;;;;;;21.98;12.68;;;11.30;99.90;;;;;;5036079;28;20033;-86
2023/05/05 04:01:00;;;;;;;31.77;14.30;;;11.30;99.90;;;;;;5039329;28;20048;-86
2023/05/05 04:03:26;;;;;;;24.02;13.38;;;11.30;99.90;;;;;;5049761;28;20037;-87
2023/05/05 04:05:52;;;;;;;23.13;14.05;;;11.40;99.90;;;;;;5036880;28;20051;-87
2023/05/05 04:08:19;;;;;;;17.80;13.50;;;11.40;99.90;;;;;;5037265;28;20384;-87
2023/05/05 04:10:45;;;;;;;20.13;13.70;;;11.50;99.90;;;;;;5037242;28;20021;-87
2023/05/05 04:13:11;;;;;;;20.02;13.35;;;11.50;99.90;;;;;;5053966;28;20071;-86
2023/05/05 04:15:37;;;;;;;18.38;12.68;;;11.60;99.90;;;;;;5036826;28;20013;-86
2023/05/05 04:18:03;;;;;;;17.50;12.27;;;11.50;99.90;;;;;;5050089;28;20048;-86
2023/05/05 04:20:30;;;;;;;22.33;13.63;;;11.40;99.90;;;;;;5045383;28;20034;-86
2023/05/05 04:22:55;;;;;;;27.17;15.35;;;11.40;99.90;;;;;;5053134;28;20029;-86
2023/05/05 04:25:22;;;;;;;18.30;13.30;;;11.30;99.90;;;;;;5053454;28;20562;-87
2023/05/05 04:27:49;;;;;;;23.23;13.68;;;11.40;99.90;;;;;;5039520;28;20025;-87
2023/05/05 04:30:14;;;;;;;24.25;12.63;;;11.40;99.90;;;;;;5036707;28;20033;-86
2023/05/05 04:32:40;;;;;;;21.67;13.30;;;11.40;99.90;;;;;;5036203;28;20029;-86
2023/05/05 04:35:07;;;;;;;22.02;12.95;;;11.40;99.90;;;;;;5054247;28;20025;-86
2023/05/05 04:37:33;;;;;;;19.67;12.80;;;11.30;99.90;;;;;;5047502;28;20108;-86
2023/05/05 04:39:59;;;;;;;17.27;12.32;;;11.30;99.90;;;;;;5036896;28;20455;-87
2023/05/05 04:42:25;;;;;;;19.15;12.50;;;11.30;99.90;;;;;;5039532;28;20040;-86
2023/05/05 04:44:51;;;;;;;19.58;12.95;;;11.40;99.90;;;;;;5036329;28;20033;-86
2023/05/05 04:47:17;;;;;;;20.65;12.48;;;11.40;99.90;;;;;;5052872;28;20021;-87
2023/05/05 04:49:46;;;;;;;17.80;12.18;;;11.40;99.90;;;;;;5044953;28;20120;-86
2023/05/05 04:52:14;;;;;;;20.70;13.25;;;11.60;99.90;;;;;;5053055;28;20077;-87
2023/05/05 04:54:40;;;;;;;16.83;12.13;;;11.70;99.90;;;;;;5035741;28;20040;-87
2023/05/05 04:57:06;;;;;;;24.17;11.25;;;11.80;99.90;;;;;;5050328;28;20124;-86
2023/05/05 04:59:33;;;;;;;22.85;11.43;;;11.90;99.90;;;;;;5035949;28;20056;-87
2023/05/05 05:01:59;;;;;;;18.55;11.10;;;12.10;99.90;;;;;;5038000;28;20024;-87
2023/05/05 05:04:26;;;;;;;15.25;11.15;;;12.20;99.90;;;;;;5052905;28;20639;-87
2023/05/05 05:06:52;;;;;;;18.58;11.52;;;12.40;99.90;;;;;;5052065;28;20074;-87
2023/05/05 05:09:17;;;;;;;19.45;11.73;;;12.40;99.90;;;;;;5052984;28;20380;-86
2023/05/05 05:11:43;;;;;;;17.95;12.60;;;12.40;99.90;;;;;;5038411;28;20021;-87
2023/05/05 05:14:09;;;;;;;24.70;13.18;;;12.40;99.90;;;;;;5036538;28;20646;-87
2023/05/05 05:16:35;;;;;;;21.52;12.07;;;12.40;99.90;;;;;;5040214;28;20036;-87
2023/05/05 05:19:01;;;;;;;17.42;11.18;;;12.40;99.90;;;;;;5035930;28;20054;-87
2023/05/05 05:21:27;;;;;;;17.20;11.23;;;12.50;99.90;;;;;;5039555;28;20025;-87
2023/05/05 05:23:53;;;;;;;15.68;11.15;;;12.50;99.90;;;;;;5034360;28;20032;-87
2023/05/05 05:26:19;;;;;;;15.90;10.20;;;12.60;99.90;;;;;;5044389;28;20041;-87
2023/05/05 05:28:45;;;;;;;19.33;10.95;;;12.60;99.90;;;;;;5036038;28;20025;-87
2023/05/05 05:31:11;;;;;;;20.75;10.80;;;12.70;99.90;;;;;;5043908;28;20056;-86
2023/05/05 05:33:36;;;;;;;13.77;10.13;;;12.80;99.90;;;;;;5040035;28;20025;-87
2023/05/05 05:36:03;;;;;;;20.92;10.65;;;12.90;99.90;;;;;;5051634;28;20496;-87
2023/05/05 05:38:29;;;;;;;21.52;10.98;;;13.20;99.90;;;;;;5041678;28;20044;-87
2023/05/05 05:40:58;;;;;;;15.50;10.15;;;13.50;99.90;;;;;;5043733;28;20091;-87
2023/05/05 05:43:24;;;;;;;16.08;9.13;;;13.90;99.90;;;;;;5052188;28;20036;-88
2023/05/05 05:45:50;;;;;;;21.88;9.80;;;14.40;99.90;;;;;;5043197;28;20036;-87
2023/05/05 05:48:16;;;;;;;18.25;9.35;;;14.60;99.90;;;;;;5035886;28;20388;-87
2023/05/05 05:50:42;;;;;;;18.50;9.48;;;14.70;99.90;;;;;;5035998;28;20021;-87
2023/05/05 05:53:08;;;;;;;15.15;9.93;;;14.80;99.90;;;;;;5032763;28;20017;-87
2023/05/05 05:55:34;;;;;;;12.32;9.52;;;15.00;99.90;;;;;;5037415;28;20025;-87
2023/05/05 05:58:00;;;;;;;15.32;10.73;;;15.10;99.90;;;;;;5035233;28;20120;-87
2023/05/05 06:00:27;;;;;;;20.08;10.57;;;15.30;99.90;;;;;;5035516;28;20483;-87
2023/05/05 06:03:00;;;;;;;14.27;8.98;;;15.50;99.90;;;;;;5036747;28;20024;-87
2023/05/05 06:05:30;;;;;;;16.13;10.25;;;15.60;99.90;;;;;;5035778;28;20033;-87
2023/05/05 06:07:56;;;;;;;15.02;10.02;;;15.80;99.90;;;;;;5035391;28;20032;-87
2023/05/05 06:10:24;;;;;;;14.43;9.73;;;15.90;99.90;;;;;;5052351;28;20060;-87
2023/05/05 06:12:49;;;;;;;11.73;8.98;;;16.00;99.90;;;;;;5035512;28;20029;-87
2023/05/05 06:15:15;;;;;;;16.45;9.38;;;16.10;99.90;;;;;;5029398;28;20032;-87
2023/05/05 06:17:42;;;;;;;14.07;8.95;;;16.40;99.90;;;;;;5050667;28;20040;-87
2023/05/05 06:20:08;;;;;;;19.10;9.25;;;16.60;99.90;;;;;;5027226;28;20523;-87
2023/05/05 06:22:34;;;;;;;11.88;8.25;;;16.70;99.90;;;;;;5050758;28;20021;-88
2023/05/05 06:25:00;;;;;;;11.32;8.10;;;16.70;99.90;;;;;;5035380;28;20120;-86
2023/05/05 06:27:26;;;;;;;11.82;8.38;;;16.70;99.90;;;;;;5028916;28;20034;-87
2023/05/05 06:29:51;;;;;;;10.52;7.32;;;16.60;99.90;;;;;;5034766;28;20212;-87
2023/05/05 06:32:17;;;;;;;13.80;8.00;;;16.50;99.90;;;;;;5038361;28;20040;-86
2023/05/05 06:34:45;;;;;;;11.02;7.78;;;16.60;99.90;;;;;;5034965;28;20036;-86
2023/05/05 06:37:11;;;;;;;11.32;8.25;;;16.60;99.90;;;;;;5048508;28;20028;-87
2023/05/05 06:39:37;;;;;;;15.38;8.43;;;16.50;99.90;;;;;;5031735;28;20021;-86
2023/05/05 06:42:03;;;;;;;11.52;7.90;;;16.40;99.90;;;;;;5035752;28;20033;-86
2023/05/05 06:44:29;;;;;;;14.77;8.32;;;16.20;99.90;;;;;;5044664;28;20482;-86
2023/05/05 06:46:55;;;;;;;12.77;7.95;;;16.20;99.90;;;;;;5031159;28;20025;-86
2023/05/05 06:49:24;;;;;;;16.42;7.63;;;16.30;99.90;;;;;;5041912;28;20147;-88
2023/05/05 06:51:50;;;;;;;16.92;8.38;;;16.40;99.90;;;;;;5047819;28;20084;-87
2023/05/05 06:54:16;;;;;;;10.60;7.65;;;16.60;99.90;;;;;;5037602;28;20029;-88
2023/05/05 06:56:42;;;;;;;12.35;8.85;;;16.70;99.90;;;;;;5037410;28;20029;-88
2023/05/05 06:59:11;;;;;;;12.70;8.10;;;16.60;99.90;;;;;;5026214;28;20032;-87
2023/05/05 07:01:37;;;;;;;10.25;7.72;;;16.60;99.90;;;;;;5047184;28;20128;-88
2023/05/05 07:04:03;;;;;;;14.63;8.13;;;16.50;99.90;;;;;;5036902;28;20029;-89
2023/05/05 07:06:29;;;;;;;10.85;7.05;;;16.60;99.90;;;;;;5037142;28;20055;-88
2023/05/05 07:08:54;;;;;;;11.80;7.20;;;16.80;99.90;;;;;;5053674;28;20025;-88
2023/05/05 07:11:20;;;;;;;14.10;6.78;;;17.00;99.90;;;;;;5042367;28;20033;-88
2023/05/05 07:13:48;;;;;;;29.27;9.43;;;17.30;99.90;;;;;;5030714;28;20069;-88
2023/05/05 07:16:14;;;;;;;11.65;6.90;;;17.70;99.90;;;;;;5033286;28;20835;-87
2023/05/05 07:18:39;;;;;;;10.02;7.03;;;17.90;99.90;;;;;;5031409;28;20212;-87
2023/05/05 07:21:05;;;;;;;9.65;6.57;;;17.80;99.90;;;;;;5033273;28;20361;-88
2023/05/05 07:23:31;;;;;;;13.68;6.53;;;17.90;99.90;;;;;;5032049;28;20079;-88
2023/05/05 07:25:58;;;;;;;16.10;7.32;;;18.00;99.90;;;;;;5035571;28;20139;-88
2023/05/05 07:28:29;;;;;;;12.75;6.57;;;18.10;99.90;;;;;;5033931;28;20068;-88
2023/05/05 07:30:58;;;;;;;11.70;6.75;;;18.10;99.90;;;;;;5031075;28;20043;-86
2023/05/05 07:33:24;;;;;;;8.82;6.50;;;18.10;99.90;;;;;;5032703;28;20020;-87
2023/05/05 07:35:53;;;;;;;12.43;6.78;;;18.10;99.90;;;;;;5050407;28;20021;-87
2023/05/05 07:38:19;;;;;;;16.58;6.70;;;18.20;99.90;;;;;;5032278;28;20491;-86
2023/05/05 07:40:47;;;;;;;15.10;7.13;;;18.50;99.90;;;;;;5030458;28;20021;-86
2023/05/05 07:43:13;;;;;;;13.48;6.47;;;18.70;99.90;;;;;;5032050;28;20029;-86
2023/05/05 07:45:39;;;;;;;16.63;7.32;;;19.10;99.90;;;;;;5036450;28;20031;-86
2023/05/05 07:48:05;;;;;;;8.95;5.80;;;19.20;99.90;;;;;;5045401;28;20041;-87
2023/05/05 07:50:30;;;;;;;14.93;6.43;;;19.20;99.90;;;;;;5034755;28;20028;-86
2023/05/05 07:52:56;;;;;;;13.80;7.53;;;19.30;99.90;;;;;;5049588;28;20072;-87
2023/05/05 07:55:22;;;;;;;13.02;7.57;;;19.30;99.90;;;;;;5029510;28;20021;-87
2023/05/05 07:57:48;;;;;;;31.63;8.90;;;19.20;99.90;;;;;;5032982;28;20021;-86
2023/05/05 08:00:14;;;;;;;15.23;7.60;;;19.20;99.90;;;;;;5032976;28;20029;-86
2023/05/05 08:02:40;;;;;;;12.02;6.25;;;19.40;99.90;;;;;;5034254;28;20055;-86
2023/05/05 08:05:07;;;;;;;12.52;6.57;;;19.60;99.90;;;;;;5038384;28;20029;-87
2023/05/05 08:07:33;;;;;;;9.63;7.70;;;19.40;99.90;;;;;;5052004;28;20162;-87
2023/05/05 08:09:58;;;;;;;10.70;7.80;;;19.30;99.90;;;;;;5029468;28;20107;-87
2023/05/05 08:12:24;;;;;;;10.52;6.47;;;19.20;99.90;;;;;;5024912;28;20029;-87
2023/05/05 08:14:50;;;;;;;14.07;7.38;;;19.20;99.90;;;;;;5049129;28;20057;-86
2023/05/05 08:17:16;;;;;;;11.65;6.63;;;19.50;99.90;;;;;;5034176;28;20064;-87
2023/05/05 08:19:41;;;;;;;14.90;6.80;;;19.70;99.90;;;;;;5031881;28;20123;-87
2023/05/05 08:22:45;;;;;;;11.07;6.32;;;19.80;99.90;;;;;;5037007;28;20028;-86
2023/05/05 08:25:11;;;;;;;10.55;6.65;;;20.10;99.90;;;;;;5046670;28;20120;-87
2023/05/05 08:27:42;;;;;;;9.52;5.32;;;20.10;99.90;;;;;;5044944;28;20037;-87
2023/05/05 08:30:08;;;;;;;12.73;5.97;;;20.90;99.90;;;;;;5053521;28;20563;-86
2023/05/05 08:32:34;;;;;;;6.85;5.35;;;21.40;99.90;;;;;;5051289;28;20094;-86
2023/05/05 08:35:04;;;;;;;8.80;5.78;;;22.30;99.90;;;;;;5034680;28;20029;-87
2023/05/05 08:37:31;;;;;;;6.47;4.60;;;23.80;99.90;;;;;;5031557;28;20076;-87
2023/05/05 08:40:07;;;;;;;9.10;5.10;;;24.30;99.90;;;;;;5033591;28;20112;-86
2023/05/05 08:42:34;;;;;;;82.50;8.32;;;24.60;99.90;;;;;;5051426;28;20024;-87
2023/05/05 08:45:00;;;;;;;10.27;3.95;;;25.80;99.90;;;;;;5035768;28;20043;-87
2023/05/05 08:47:25;;;;;;;6.78;4.13;;;27.20;99.90;;;;;;5033865;28;20427;-87
2023/05/05 08:49:54;;;;;;;5.25;3.47;;;28.00;97.40;;;;;;5033523;28;20038;-88
2023/05/05 08:52:23;;;;;;;4.60;3.22;;;27.00;95.10;;;;;;5036530;28;20034;-85
2023/05/05 08:55:08;;;;;;;6.32;4.13;;;26.50;94.70;;;;;;5049673;28;20435;-87
2023/05/05 08:57:57;;;;;;;7.13;3.20;;;26.10;96.00;;;;;;5043941;28;20037;-85
2023/05/05 09:00:25;;;;;;;3.95;2.80;;;25.50;94.70;;;;;;5025836;28;20508;-86
2023/05/05 09:02:53;;;;;;;7.15;2.80;;;25.50;96.00;;;;;;5027383;28;20033;-86
2023/05/05 09:05:19;;;;;;;3.28;2.90;;;25.10;94.80;;;;;;5052151;28;20484;-86
2023/05/05 09:07:46;;;;;;;3.45;2.60;;;25.00;94.70;;;;;;5030692;28;20025;-87
2023/05/05 09:10:12;;;;;;;7.68;1.95;;;25.20;93.90;;;;;;5052703;28;20075;-86
2023/05/05 09:12:41;;;;;;;2.47;2.28;;;25.50;91.80;;;;;;5052938;28;20530;-86
2023/05/05 09:15:12;;;;;;;3.53;1.70;;;25.90;91.20;;;;;;5028378;28;20501;-87
2023/05/05 09:17:39;;;;;;;5.40;2.00;;;26.10;88.80;;;;;;5033269;28;20026;-86
2023/05/05 09:20:09;;;;;;;3.40;1.80;;;26.50;87.30;;;;;;5014769;28;20081;-87
2023/05/05 09:22:40;;;;;;;11.13;2.65;;;26.60;88.40;;;;;;5048538;28;20030;-87
2023/05/05 09:25:07;;;;;;;;;;;26.50;88.70;;;;;;5016886;28;20112;-86
2023/05/05 09:27:47;;;;;;;2.42;2.20;;;26.30;84.40;;;;;;5035441;28;20360;-87
2023/05/05 09:30:18;;;;;;;6.00;2.33;;;26.40;84.40;;;;;;5048741;28;20038;-86
2023/05/05 09:32:44;;;;;;;6.60;2.53;;;26.00;87.20;;;;;;5001807;28;20026;-86
2023/05/05 09:35:13;;;;;;;2.97;2.28;;;25.30;89.90;;;;;;5038637;28;20037;-87
2023/05/05 09:38:12;;;;;;;4.30;1.88;;;25.20;90.00;;;;;;5033109;28;20496;-87
2023/05/05 09:40:51;;;;;;;3.90;2.45;;;25.40;87.50;;;;;;5024232;28;20029;-88
2023/05/05 09:43:24;;;;;;;3.55;2.05;;;24.90;87.90;;;;;;5036354;28;20040;-88
2023/05/05 09:45:50;;;;;;;4.22;2.13;;;24.80;87.80;;;;;;5037071;28;20057;-87
2023/05/05 09:48:27;;;;;;;6.07;2.60;;;24.80;84.60;;;;;;5029242;28;20053;-86
2023/05/05 09:50:53;;;;;;;4.38;2.42;;;25.20;86.60;;;;;;5040069;28;20540;-87
2023/05/05 09:53:20;;;;;;;4.00;2.55;;;25.30;88.40;;;;;;5021192;28;20026;-87
2023/05/05 09:55:59;;;;;;;3.78;2.47;;;25.10;90.00;;;;;;5009363;28;20041;-87
2023/05/05 09:58:27;;;;;;;7.97;3.45;;;24.70;90.60;;;;;;5019274;28;20033;-87
2023/05/05 10:00:54;;;;;;;3.40;2.55;;;24.20;91.60;;;;;;5023696;28;20034;-86
2023/05/05 10:03:20;;;;;;;4.38;2.35;;;23.70;91.40;;;;;;5024588;28;20117;-87
2023/05/05 10:05:51;;;;;;;5.47;2.30;;;23.60;93.10;;;;;;5019356;28;20026;-87
2023/05/05 10:08:22;;;;;;;7.38;2.50;;;23.70;91.30;;;;;;5022063;28;20026;-87
2023/05/05 10:10:55;;;;;;;12.77;2.58;;;24.20;92.60;;;;;;5029897;28;20038;-88
2023/05/05 10:13:23;;;;;;;6.85;2.15;;;24.80;89.80;;;;;;5018151;28;20030;-87
2023/05/05 10:15:52;;;;;;;2.95;2.08;;;24.50;90.20;;;;;;5027804;28;20078;-87
2023/05/05 10:18:22;;;;;;;6.88;1.90;;;24.20;89.30;;;;;;5021675;28;20036;-87
2023/05/05 10:20:56;;;;;;;3.60;1.87;;;24.10;90.40;;;;;;5030518;28;20025;-87
2023/05/05 10:23:23;;;;;;;3.45;1.85;;;23.70;88.60;;;;;;5004027;28;20117;-88
2023/05/05 10:25:54;;;;;;;4.45;1.98;;;23.70;90.20;;;;;;5021432;28;20041;-87
2023/05/05 10:28:44;;;;;;;3.15;2.13;;;23.70;90.20;;;;;;5024273;28;20119;-88
2023/05/05 10:31:26;;;;;;;8.45;2.20;;;23.70;91.40;;;;;;5018347;28;20489;-87
2023/05/05 10:34:24;;;;;;;10.20;2.65;;;23.80;90.90;;;;;;5029693;28;20034;-87
2023/05/05 10:36:53;;;;;;;5.50;2.70;;;24.00;91.80;;;;;;5010442;28;20511;-87
2023/05/05 10:39:23;;;;;;;6.38;2.90;;;24.10;93.60;;;;;;5038760;28;20022;-87
2023/05/05 10:41:50;;;;;;;5.07;2.83;;;23.80;92.80;;;;;;5028534;28;20030;-88
2023/05/05 10:44:17;;;;;;;7.13;2.80;;;23.40;93.00;;;;;;5028392;28;20539;-88
2023/05/05 10:46:43;;;;;;;17.35;4.13;;;23.80;95.20;;;;;;5040168;28;20108;-87
2023/05/05 10:49:27;;;;;;;7.38;3.20;;;24.20;95.50;;;;;;5029562;28;20432;-87
2023/05/05 10:52:22;;;;;;;4.10;2.95;;;24.10;95.90;;;;;;5028875;28;20018;-88
2023/05/05 10:54:54;;;;;;;9.35;3.13;;;24.00;95.70;;;;;;5032258;28;20026;-87
2023/05/05 10:57:24;;;;;;;5.78;3.03;;;24.00;96.20;;;;;;5036427;28;20029;-87
2023/05/05 10:59:50;;;;;;;7.37;2.83;;;24.00;96.80;;;;;;5027543;28;20539;-88
2023/05/05 11:02:27;;;;;;;9.35;3.58;;;24.00;95.30;;;;;;5031006;28;20038;-88
2023/05/05 11:05:08;;;;;;;7.63;3.28;;;24.00;94.50;;;;;;5031123;28;20037;-88
2023/05/05 11:07:35;;;;;;;4.13;2.40;;;24.30;94.70;;;;;;5034609;28;20026;-87
2023/05/05 11:10:03;;;;;;;4.63;2.83;;;24.40;94.50;;;;;;5034349;28;20029;-87
2023/05/05 11:12:30;;;;;;;4.13;2.88;;;24.80;95.10;;;;;;5030559;28;20461;-87
2023/05/05 11:15:30;;;;;;;7.85;2.80;;;24.40;94.20;;;;;;5035090;28;20037;-87
2023/05/05 11:17:57;;;;;;;5.70;2.60;;;24.20;95.20;;;;;;5026136;28;20044;-88
2023/05/05 11:20:42;;;;;;;4.70;2.40;;;25.20;94.60;;;;;;5035453;28;20021;-87
2023/05/05 11:23:08;;;;;;;3.03;1.75;;;25.60;91.20;;;;;;5010579;28;20025;-87
2023/05/05 11:29:20;;;;;;;4.10;1.50;;;24.80;84.00;;;;;;5023789;28;20860;-87
2023/05/05 11:32:09;;;;;;;4.13;1.92;;;24.40;82.40;;;;;;5032831;28;20022;-87
2023/05/05 11:34:50;;;;;;;2.78;1.58;;;23.60;86.10;;;;;;5034775;28;20049;-87
2023/05/05 11:37:16;;;;;;;3.10;1.70;;;23.50;90.20;;;;;;5017770;28;20038;-87
2023/05/05 11:40:17;;;;;;;1.95;1.50;;;23.70;87.70;;;;;;5033994;28;20029;-88
2023/05/05 11:42:42;;;;;;;4.93;1.55;;;24.00;87.30;;;;;;4991126;28;20736;-87
2023/05/05 11:45:26;;;;;;;8.98;2.20;;;24.10;89.50;;;;;;5046572;28;20036;-87
2023/05/05 11:48:28;;;;;;;4.32;2.38;;;24.40;90.10;;;;;;5026413;28;20107;-87
2023/05/05 11:50:53;;;;;;;3.22;2.10;;;24.30;91.90;;;;;;5013577;28;20029;-88
2023/05/05 11:53:19;;;;;;;6.93;1.90;;;24.60;92.40;;;;;;5014072;28;20414;-87
2023/05/05 11:55:45;;;;;;;3.97;1.75;;;25.00;85.70;;;;;;5024194;28;20465;-87
2023/05/05 11:58:18;;;;;;;3.35;1.80;;;24.90;83.80;;;;;;5019827;28;20026;-86
2023/05/05 12:00:44;;;;;;;4.30;2.03;;;24.80;85.20;;;;;;5030295;28;20025;-87
2023/05/05 12:03:10;;;;;;;9.13;2.33;;;24.00;91.30;;;;;;5021362;28;20037;-88
2023/05/05 12:05:36;;;;;;;3.95;2.33;;;24.10;92.00;;;;;;5030597;28;20083;-88
2023/05/05 12:08:02;;;;;;;24.90;2.72;;;24.40;92.00;;;;;;5026102;28;20025;-87
2023/05/05 12:10:28;;;;;;;7.63;2.03;;;24.60;90.40;;;;;;5029573;28;20121;-88
2023/05/05 12:12:53;;;;;;;5.25;2.50;;;24.80;90.60;;;;;;5003622;28;20078;-88
2023/05/05 12:15:31;;;;;;;5.22;1.88;;;25.10;90.20;;;;;;5031538;28;20169;-87
2023/05/05 12:17:56;;;;;;;4.38;1.80;;;25.30;86.40;;;;;;5026920;28;20029;-87
2023/05/05 12:20:31;;;;;;;11.88;2.03;;;25.10;85.50;;;;;;5019662;28;20029;-88
2023/05/05 12:23:03;;;;;;;10.23;2.00;;;25.30;88.50;;;;;;5029385;28;20034;-87
2023/05/05 12:25:37;;;;;;;5.53;2.58;;;25.50;85.90;;;;;;5028075;28;20061;-88
2023/05/05 12:28:06;;;;;;;5.75;1.70;;;25.20;88.40;;;;;;5045900;28;20034;-87
2023/05/05 12:30:33;;;;;;;4.07;1.60;;;25.50;90.70;;;;;;5027950;28;20540;-87
2023/05/05 12:33:04;;;;;;;1.38;1.17;;;25.60;86.80;;;;;;5025599;28;20389;-86
2023/05/05 12:35:30;;;;;;;5.95;1.30;;;24.80;77.30;;;;;;5039092;28;20053;-86
2023/05/05 12:37:57;;;;;;;5.97;1.25;;;24.80;80.60;;;;;;5028452;28;20026;-88
2023/05/05 12:40:43;;;;;;;7.03;1.90;;;25.50;82.70;;;;;;5012820;28;20033;-87
2023/05/05 12:43:21;;;;;;;6.50;1.77;;;25.60;79.50;;;;;;5038853;28;20087;-86
2023/05/05 12:45:48;;;;;;;2.33;1.25;;;24.90;82.10;;;;;;5025607;28;20113;-87
2023/05/05 12:48:21;;;;;;;3.70;1.95;;;24.50;84.40;;;;;;5031040;28;20033;-86
2023/05/05 12:50:46;;;;;;;8.23;2.03;;;24.00;84.90;;;;;;5030099;28;20026;-88
2023/05/05 12:53:20;;;;;;;6.65;2.45;;;23.70;89.70;;;;;;5019889;28;20031;-88
2023/05/05 12:55:46;;;;;;;5.03;1.65;;;23.70;90.40;;;;;;5016882;28;20466;-87
2023/05/05 12:58:12;;;;;;;3.50;2.10;;;24.00;87.60;;;;;;5004784;28;20030;-87